createdAt,value
2022-10-22T00:00:58.266Z,13.73
2022-10-22T00:02:02.618Z,13.73
2022-10-22T00:03:07.034Z,13.74
2022-10-22T00:04:11.257Z,13.74
2022-10-22T00:05:15.640Z,13.75
2022-10-22T00:06:19.955Z,13.75
2022-10-22T00:07:24.362Z,13.76
2022-10-22T00:08:28.760Z,13.78
2022-10-22T00:09:33.031Z,13.79
2022-10-22T00:10:37.361Z,13.81
2022-10-22T00:11:41.784Z,13.81
2022-10-22T00:12:46.192Z,13.83
2022-10-22T00:13:50.444Z,13.84
2022-10-22T00:14:54.778Z,13.85
2022-10-22T00:15:59.205Z,13.86
2022-10-22T00:17:04.230Z,13.87
2022-10-22T00:18:07.790Z,13.88
2022-10-22T00:19:12.160Z,13.89
2022-10-22T00:20:16.549Z,13.90
2022-10-22T00:21:20.612Z,13.90
2022-10-22T00:22:25.133Z,13.91
2022-10-22T00:23:29.432Z,13.92
2022-10-22T00:24:33.743Z,13.93
2022-10-22T00:25:38.076Z,13.93
2022-10-22T00:26:42.491Z,13.94
2022-10-22T00:27:46.797Z,13.94
2022-10-22T00:28:51.141Z,13.94
2022-10-22T00:29:55.498Z,13.94
2022-10-22T00:30:59.927Z,13.94
2022-10-22T00:32:04.216Z,13.94
2022-10-22T00:33:08.563Z,13.93
2022-10-22T00:34:12.967Z,13.93
2022-10-22T00:35:17.226Z,13.92
2022-10-22T00:36:21.603Z,13.91
2022-10-22T00:37:25.945Z,13.90
2022-10-22T00:38:30.233Z,13.89
2022-10-22T00:39:34.569Z,13.88
2022-10-22T00:40:38.917Z,13.87
2022-10-22T00:41:43.207Z,13.85
2022-10-22T00:42:47.575Z,13.83
2022-10-22T00:43:51.888Z,13.82
2022-10-22T00:44:56.221Z,13.80
2022-10-22T00:46:00.556Z,13.79
2022-10-22T00:47:04.820Z,13.77
2022-10-22T00:48:09.297Z,13.76
2022-10-22T00:49:13.530Z,13.74
2022-10-22T00:50:17.894Z,13.73
2022-10-22T00:51:22.312Z,13.70
2022-10-22T00:52:26.587Z,13.68
2022-10-22T00:53:30.915Z,13.67
2022-10-22T00:54:35.271Z,13.66
2022-10-22T00:55:39.518Z,13.65
2022-10-22T00:56:43.884Z,13.65
2022-10-22T00:57:48.274Z,13.65
2022-10-22T00:58:52.596Z,13.65
2022-10-22T00:59:56.921Z,13.65
2022-10-22T01:01:01.451Z,13.66
2022-10-22T01:02:05.617Z,13.67
2022-10-22T01:03:13.017Z,13.68
2022-10-22T01:04:16.476Z,13.68
2022-10-22T01:05:20.632Z,13.69
2022-10-22T01:06:24.999Z,13.70
2022-10-22T01:07:29.339Z,13.71
2022-10-22T01:08:33.700Z,13.72
2022-10-22T01:09:38.006Z,13.73
2022-10-22T01:10:42.414Z,13.74
2022-10-22T01:11:46.697Z,13.74
2022-10-22T01:12:50.943Z,13.75
2022-10-22T01:13:55.392Z,13.75
2022-10-22T01:14:59.761Z,13.76
2022-10-22T01:16:04.095Z,13.77
2022-10-22T01:17:08.607Z,13.78
2022-10-22T01:18:12.797Z,13.79
2022-10-22T01:19:17.059Z,13.80
2022-10-22T01:20:21.510Z,13.80
2022-10-22T01:21:25.872Z,13.81
2022-10-22T01:22:30.002Z,13.82
2022-10-22T01:23:34.536Z,13.84
2022-10-22T01:24:38.858Z,13.85
2022-10-22T01:25:43.216Z,13.86
2022-10-22T01:26:47.364Z,13.88
2022-10-22T01:27:51.826Z,13.89
2022-10-22T01:28:56.162Z,13.90
2022-10-22T01:30:00.491Z,13.91
2022-10-22T01:31:04.868Z,13.93
2022-10-22T01:32:09.280Z,13.94
2022-10-22T01:33:13.467Z,13.95
2022-10-22T01:34:17.861Z,13.96
2022-10-22T01:35:22.287Z,13.98
2022-10-22T01:36:26.622Z,13.99
2022-10-22T01:37:30.925Z,13.99
2022-10-22T01:38:35.255Z,13.99
2022-10-22T01:39:39.667Z,13.99
2022-10-22T01:40:44.079Z,13.99
2022-10-22T01:41:48.406Z,13.99
2022-10-22T01:42:52.747Z,13.99
2022-10-22T01:43:57.081Z,13.99
2022-10-22T01:45:01.521Z,14.00
2022-10-22T01:46:05.780Z,14.01
2022-10-22T01:47:10.199Z,14.02
2022-10-22T01:48:14.415Z,14.03
2022-10-22T01:49:18.873Z,14.04
2022-10-22T01:50:23.166Z,14.06
2022-10-22T01:51:27.501Z,14.07
2022-10-22T01:52:31.774Z,14.08
2022-10-22T01:53:36.182Z,14.09
2022-10-22T01:54:40.509Z,14.10
2022-10-22T01:55:44.809Z,14.12
2022-10-22T01:56:49.173Z,14.13
2022-10-22T01:57:53.579Z,14.14
2022-10-22T01:58:57.890Z,14.15
2022-10-22T02:00:02.309Z,14.16
2022-10-22T02:01:06.467Z,14.18
2022-10-22T02:02:10.849Z,14.19
2022-10-22T02:03:17.469Z,14.19
2022-10-22T02:04:19.470Z,14.20
2022-10-22T02:05:23.911Z,14.20
2022-10-22T02:06:28.317Z,14.21
2022-10-22T02:07:32.646Z,14.21
2022-10-22T02:08:37.075Z,14.22
2022-10-22T02:09:41.358Z,14.22
2022-10-22T02:10:45.796Z,14.23
2022-10-22T02:11:50.144Z,14.22
2022-10-22T02:12:54.544Z,14.22
2022-10-22T02:13:58.849Z,14.21
2022-10-22T02:15:03.279Z,14.21
2022-10-22T02:16:07.689Z,14.21
2022-10-22T02:17:12.012Z,14.22
2022-10-22T02:18:16.403Z,14.21
2022-10-22T02:19:20.682Z,14.22
2022-10-22T02:20:25.076Z,14.22
2022-10-22T02:21:29.432Z,14.22
2022-10-22T02:22:33.746Z,14.22
2022-10-22T02:23:38.204Z,14.23
2022-10-22T02:24:42.485Z,14.24
2022-10-22T02:25:46.910Z,14.25
2022-10-22T02:26:51.232Z,14.25
2022-10-22T02:27:55.647Z,14.26
2022-10-22T02:28:59.954Z,14.26
2022-10-22T02:30:04.365Z,14.26
2022-10-22T02:31:08.739Z,14.26
2022-10-22T02:32:12.966Z,14.27
2022-10-22T02:33:17.485Z,14.27
2022-10-22T02:34:21.751Z,14.27
2022-10-22T02:35:26.156Z,14.27
2022-10-22T02:36:30.567Z,14.28
2022-10-22T02:37:34.872Z,14.28
2022-10-22T02:38:39.161Z,14.28
2022-10-22T02:39:43.488Z,14.28
2022-10-22T02:40:47.803Z,14.28
2022-10-22T02:41:52.220Z,14.28
2022-10-22T02:42:56.570Z,14.27
2022-10-22T02:44:00.893Z,14.27
2022-10-22T02:45:05.315Z,14.28
2022-10-22T02:46:09.704Z,14.28
2022-10-22T02:47:13.990Z,14.28
2022-10-22T02:48:18.437Z,14.28
2022-10-22T02:49:22.797Z,14.28
2022-10-22T02:50:27.171Z,14.28
2022-10-22T02:51:31.540Z,14.28
2022-10-22T02:52:35.897Z,14.28
2022-10-22T02:53:40.074Z,14.28
2022-10-22T02:54:44.568Z,14.29
2022-10-22T02:55:48.867Z,14.29
2022-10-22T02:56:53.166Z,14.29
2022-10-22T02:57:57.512Z,14.29
2022-10-22T02:59:01.841Z,14.29
2022-10-22T03:00:06.166Z,14.29
2022-10-22T03:01:13.716Z,14.29
2022-10-22T03:02:14.835Z,14.29
2022-10-22T03:03:19.234Z,14.29
2022-10-22T03:04:23.357Z,14.29
2022-10-22T03:05:27.752Z,14.29
2022-10-22T03:06:32.126Z,14.30
2022-10-22T03:07:36.551Z,14.30
2022-10-22T03:08:40.869Z,14.30
2022-10-22T03:09:45.243Z,14.30
2022-10-22T03:10:49.479Z,14.30
2022-10-22T03:11:53.968Z,14.30
2022-10-22T03:12:58.236Z,14.30
2022-10-22T03:14:02.676Z,14.30
2022-10-22T03:15:06.998Z,14.30
2022-10-22T03:16:11.234Z,14.30
2022-10-22T03:17:15.638Z,14.30
2022-10-22T03:18:20.000Z,14.30
2022-10-22T03:19:24.345Z,14.30
2022-10-22T03:20:28.761Z,14.30
2022-10-22T03:21:33.083Z,14.31
2022-10-22T03:22:37.500Z,14.30
2022-10-22T03:23:41.819Z,14.31
2022-10-22T03:24:46.147Z,14.31
2022-10-22T03:25:50.665Z,14.31
2022-10-22T03:26:54.895Z,14.31
2022-10-22T03:27:59.336Z,14.31
2022-10-22T03:29:03.439Z,14.31
2022-10-22T03:30:07.990Z,14.31
2022-10-22T03:31:15.404Z,14.31
2022-10-22T03:32:18.828Z,14.31
2022-10-22T03:33:23.224Z,14.31
2022-10-22T03:34:27.533Z,14.31
2022-10-22T03:35:31.921Z,14.32
2022-10-22T03:36:36.334Z,14.32
2022-10-22T03:37:41.006Z,14.31
2022-10-22T03:38:44.766Z,14.32
2022-10-22T03:39:49.131Z,14.32
2022-10-22T03:40:53.589Z,14.32
2022-10-22T03:41:57.967Z,14.31
2022-10-22T03:43:02.264Z,14.31
2022-10-22T03:44:06.586Z,14.31
2022-10-22T03:45:10.901Z,14.31
2022-10-22T03:46:15.323Z,14.31
2022-10-22T03:47:19.657Z,14.32
2022-10-22T03:48:23.963Z,14.32
2022-10-22T03:49:28.434Z,14.32
2022-10-22T03:50:32.752Z,14.33
2022-10-22T03:51:37.163Z,14.33
2022-10-22T03:52:41.480Z,14.33
2022-10-22T03:53:45.912Z,14.33
2022-10-22T03:54:50.298Z,14.34
2022-10-22T03:55:54.684Z,14.34
2022-10-22T03:56:59.000Z,14.34
2022-10-22T03:58:03.353Z,14.33
2022-10-22T03:59:07.804Z,14.34
2022-10-22T04:00:12.134Z,14.34
2022-10-22T04:01:16.579Z,14.35
2022-10-22T04:02:20.946Z,14.35
2022-10-22T04:03:25.274Z,14.36
2022-10-22T04:04:29.725Z,14.36
2022-10-22T04:05:34.036Z,14.37
2022-10-22T04:06:38.408Z,14.37
2022-10-22T04:07:43.006Z,14.37
2022-10-22T04:08:47.149Z,14.37
2022-10-22T04:09:51.424Z,14.38
2022-10-22T04:10:55.885Z,14.38
2022-10-22T04:12:00.226Z,14.38
2022-10-22T04:13:04.573Z,14.39
2022-10-22T04:14:08.993Z,14.39
2022-10-22T04:15:13.175Z,14.39
2022-10-22T04:16:17.556Z,14.39
2022-10-22T04:17:21.913Z,14.39
2022-10-22T04:18:26.276Z,14.40
2022-10-22T04:19:30.614Z,14.40
2022-10-22T04:20:35.063Z,14.40
2022-10-22T04:21:39.358Z,14.40
2022-10-22T04:22:43.727Z,14.40
2022-10-22T04:23:48.141Z,14.40
2022-10-22T04:24:52.460Z,14.40
2022-10-22T04:25:56.776Z,14.40
2022-10-22T04:27:01.203Z,14.40
2022-10-22T04:28:05.587Z,14.40
2022-10-22T04:29:13.372Z,14.40
2022-10-22T04:30:14.272Z,14.40
2022-10-22T04:31:18.682Z,14.39
2022-10-22T04:32:22.946Z,14.40
2022-10-22T04:33:27.346Z,14.40
2022-10-22T04:34:31.726Z,14.40
2022-10-22T04:35:36.023Z,14.40
2022-10-22T04:36:40.396Z,14.40
2022-10-22T04:37:44.801Z,14.40
2022-10-22T04:38:49.174Z,14.40
2022-10-22T04:39:53.499Z,14.40
2022-10-22T04:40:57.636Z,14.41
2022-10-22T04:42:02.158Z,14.41
2022-10-22T04:43:06.512Z,14.41
2022-10-22T04:44:13.629Z,14.41
2022-10-22T04:45:15.013Z,14.41
2022-10-22T04:46:19.507Z,14.41
2022-10-22T04:47:23.937Z,14.41
2022-10-22T04:48:28.276Z,14.41
2022-10-22T04:49:32.590Z,14.42
2022-10-22T04:50:37.018Z,14.42
2022-10-22T04:51:41.320Z,14.42
2022-10-22T04:52:45.640Z,14.42
2022-10-22T04:53:49.996Z,14.42
2022-10-22T04:54:54.320Z,14.43
2022-10-22T04:55:58.705Z,14.43
2022-10-22T04:57:03.009Z,14.43
2022-10-22T04:58:07.442Z,14.42
2022-10-22T04:59:11.717Z,14.42
2022-10-22T05:00:16.064Z,14.42
2022-10-22T05:01:20.595Z,14.42
2022-10-22T05:02:24.854Z,14.43
2022-10-22T05:03:29.263Z,14.43
2022-10-22T05:04:33.620Z,14.44
2022-10-22T05:05:37.995Z,14.44
2022-10-22T05:06:42.391Z,14.45
2022-10-22T05:07:46.682Z,14.45
2022-10-22T05:08:51.057Z,14.46
2022-10-22T05:09:58.337Z,14.46
2022-10-22T05:11:01.768Z,14.46
2022-10-22T05:12:06.168Z,14.47
2022-10-22T05:13:10.433Z,14.47
2022-10-22T05:14:14.843Z,14.47
2022-10-22T05:15:19.210Z,14.47
2022-10-22T05:16:23.582Z,14.47
2022-10-22T05:17:27.829Z,14.47
2022-10-22T05:18:32.183Z,14.47
2022-10-22T05:19:36.357Z,14.47
2022-10-22T05:20:40.760Z,14.47
2022-10-22T05:21:45.099Z,14.47
2022-10-22T05:22:49.428Z,14.47
2022-10-22T05:23:53.850Z,14.47
2022-10-22T05:24:58.238Z,14.46
2022-10-22T05:26:02.489Z,14.46
2022-10-22T05:27:07.005Z,14.46
2022-10-22T05:28:11.345Z,14.46
2022-10-22T05:29:15.711Z,14.46
2022-10-22T05:30:20.037Z,14.46
2022-10-22T05:31:24.383Z,14.46
2022-10-22T05:32:28.743Z,14.46
2022-10-22T05:33:33.133Z,14.47
2022-10-22T05:34:37.530Z,14.47
2022-10-22T05:35:46.593Z,14.47
2022-10-22T05:36:46.144Z,14.47
2022-10-22T05:37:50.583Z,14.47
2022-10-22T05:38:54.848Z,14.47
2022-10-22T05:40:12.331Z,14.48
2022-10-22T05:41:03.556Z,14.48
2022-10-22T05:42:07.922Z,14.48
2022-10-22T05:43:12.331Z,14.48
2022-10-22T05:44:16.718Z,14.48
2022-10-22T05:45:21.008Z,14.48
2022-10-22T05:46:25.364Z,14.49
2022-10-22T05:47:29.797Z,14.48
2022-10-22T05:48:34.171Z,14.49
2022-10-22T05:49:38.474Z,14.48
2022-10-22T05:50:42.860Z,14.49
2022-10-22T05:51:47.158Z,14.48
2022-10-22T05:52:51.619Z,14.49
2022-10-22T05:53:55.916Z,14.48
2022-10-22T05:55:00.022Z,14.49
2022-10-22T05:56:04.367Z,14.48
2022-10-22T05:57:08.782Z,14.48
2022-10-22T05:58:13.099Z,14.48
2022-10-22T05:59:17.416Z,14.48
2022-10-22T06:00:21.764Z,14.48
2022-10-22T06:01:26.200Z,14.48
2022-10-22T06:02:30.586Z,14.48
2022-10-22T06:03:34.846Z,14.48
2022-10-22T06:04:39.216Z,14.48
2022-10-22T06:05:43.543Z,14.48
2022-10-22T06:06:47.942Z,14.48
2022-10-22T06:07:52.331Z,14.48
2022-10-22T06:08:56.720Z,14.48
2022-10-22T06:10:01.059Z,14.48
2022-10-22T06:11:05.445Z,14.48
2022-10-22T06:12:09.806Z,14.49
2022-10-22T06:13:14.172Z,14.49
2022-10-22T06:14:18.482Z,14.49
2022-10-22T06:15:22.888Z,14.49
2022-10-22T06:16:27.251Z,14.49
2022-10-22T06:17:31.601Z,14.50
2022-10-22T06:18:35.718Z,14.50
2022-10-22T06:19:40.213Z,14.51
2022-10-22T06:20:44.594Z,14.51
2022-10-22T06:21:48.899Z,14.51
2022-10-22T06:22:53.334Z,14.51
2022-10-22T06:23:57.599Z,14.51
2022-10-22T06:25:01.985Z,14.52
2022-10-22T06:26:06.294Z,14.52
2022-10-22T06:27:10.721Z,14.52
2022-10-22T06:28:15.013Z,14.53
2022-10-22T06:29:19.318Z,14.53
2022-10-22T06:30:23.744Z,14.52
2022-10-22T06:31:27.998Z,14.52
2022-10-22T06:32:32.308Z,14.52
2022-10-22T06:33:36.572Z,14.51
2022-10-22T06:34:40.997Z,14.52
2022-10-22T06:35:45.353Z,14.51
2022-10-22T06:36:49.704Z,14.52
2022-10-22T06:37:54.175Z,14.53
2022-10-22T06:38:58.309Z,14.53
2022-10-22T06:40:02.715Z,14.54
2022-10-22T06:41:07.052Z,14.55
2022-10-22T06:42:11.407Z,14.55
2022-10-22T06:43:15.762Z,14.56
2022-10-22T06:44:20.169Z,14.57
2022-10-22T06:45:24.541Z,14.57
2022-10-22T06:46:28.841Z,14.58
2022-10-22T06:47:33.248Z,14.58
2022-10-22T06:48:37.549Z,14.59
2022-10-22T06:49:41.871Z,14.59
2022-10-22T06:50:46.167Z,14.60
2022-10-22T06:51:50.605Z,14.61
2022-10-22T06:52:54.965Z,14.62
2022-10-22T06:53:59.323Z,14.63
2022-10-22T06:55:03.671Z,14.63
2022-10-22T06:56:08.067Z,14.64
2022-10-22T06:57:12.360Z,14.65
2022-10-22T06:58:16.763Z,14.66
2022-10-22T06:59:21.092Z,14.68
2022-10-22T07:00:25.522Z,14.69
2022-10-22T07:01:29.879Z,14.71
2022-10-22T07:02:34.215Z,14.72
2022-10-22T07:03:38.487Z,14.73
2022-10-22T07:04:42.846Z,14.75
2022-10-22T07:05:47.187Z,14.76
2022-10-22T07:06:51.499Z,14.78
2022-10-22T07:07:55.891Z,14.79
2022-10-22T07:09:00.370Z,14.80
2022-10-22T07:10:04.507Z,14.81
2022-10-22T07:11:08.787Z,14.82
2022-10-22T07:12:13.183Z,14.83
2022-10-22T07:13:17.590Z,14.84
2022-10-22T07:14:21.887Z,14.84
2022-10-22T07:15:26.214Z,14.85
2022-10-22T07:16:32.491Z,14.85
2022-10-22T07:17:34.892Z,14.86
2022-10-22T07:18:39.171Z,14.87
2022-10-22T07:19:44.596Z,14.88
2022-10-22T07:20:47.886Z,14.88
2022-10-22T07:21:52.209Z,14.89
2022-10-22T07:22:56.619Z,14.90
2022-10-22T07:24:00.844Z,14.91
2022-10-22T07:25:07.476Z,14.91
2022-10-22T07:26:09.569Z,14.92
2022-10-22T07:27:14.008Z,14.93
2022-10-22T07:28:18.248Z,14.93
2022-10-22T07:29:22.671Z,14.94
2022-10-22T07:30:26.937Z,14.95
2022-10-22T07:31:31.334Z,14.96
2022-10-22T07:32:35.680Z,14.96
2022-10-22T07:33:40.044Z,14.97
2022-10-22T07:34:44.395Z,14.98
2022-10-22T07:35:48.656Z,14.99
2022-10-22T07:36:53.032Z,15.00
2022-10-22T07:37:57.377Z,15.01
2022-10-22T07:39:01.634Z,15.02
2022-10-22T07:40:06.013Z,15.03
2022-10-22T07:41:10.418Z,15.04
2022-10-22T07:42:14.711Z,15.05
2022-10-22T07:43:19.083Z,15.06
2022-10-22T07:44:23.272Z,15.07
2022-10-22T07:45:27.685Z,15.08
2022-10-22T07:46:32.113Z,15.09
2022-10-22T07:47:36.436Z,15.09
2022-10-22T07:48:40.727Z,15.10
2022-10-22T07:49:45.059Z,15.11
2022-10-22T07:50:49.399Z,15.12
2022-10-22T07:51:53.759Z,15.13
2022-10-22T07:52:58.456Z,15.13
2022-10-22T07:54:02.415Z,15.14
2022-10-22T07:55:06.756Z,15.15
2022-10-22T07:56:11.172Z,15.15
2022-10-22T07:57:15.484Z,15.16
2022-10-22T07:58:19.909Z,15.17
2022-10-22T07:59:24.128Z,15.17
2022-10-22T08:00:28.410Z,15.18
2022-10-22T08:01:32.874Z,15.18
2022-10-22T08:02:37.156Z,15.19
2022-10-22T08:03:41.500Z,15.20
2022-10-22T08:04:45.866Z,15.21
2022-10-22T08:05:50.224Z,15.22
2022-10-22T08:06:54.667Z,15.23
2022-10-22T08:07:58.973Z,15.24
2022-10-22T08:09:03.430Z,15.25
2022-10-22T08:10:07.683Z,15.26
2022-10-22T08:11:12.056Z,15.28
2022-10-22T08:12:16.405Z,15.29
2022-10-22T08:13:20.831Z,15.30
2022-10-22T08:14:39.229Z,15.32
2022-10-22T08:15:42.430Z,15.34
2022-10-22T08:16:46.787Z,15.36
2022-10-22T08:17:51.183Z,15.38
2022-10-22T08:18:55.587Z,15.39
2022-10-22T08:19:59.867Z,15.41
2022-10-22T08:21:04.253Z,15.43
2022-10-22T08:22:08.601Z,15.44
2022-10-22T08:23:13.023Z,15.46
2022-10-22T08:24:17.320Z,15.47
2022-10-22T08:25:21.654Z,15.49
2022-10-22T08:26:26.104Z,15.50
2022-10-22T08:27:30.490Z,15.51
2022-10-22T08:28:34.871Z,15.52
2022-10-22T08:29:39.176Z,15.53
2022-10-22T08:30:43.626Z,15.54
2022-10-22T08:31:47.990Z,15.55
2022-10-22T08:32:54.013Z,15.55
2022-10-22T08:33:56.647Z,15.56
2022-10-22T08:35:01.031Z,15.57
2022-10-22T08:36:05.460Z,15.58
2022-10-22T08:37:09.840Z,15.59
2022-10-22T08:38:14.167Z,15.61
2022-10-22T08:39:18.454Z,15.62
2022-10-22T08:40:22.828Z,15.63
2022-10-22T08:41:27.254Z,15.65
2022-10-22T08:42:31.562Z,15.66
2022-10-22T08:43:35.894Z,15.67
2022-10-22T08:44:40.260Z,15.68
2022-10-22T08:45:44.678Z,15.69
2022-10-22T08:46:49.014Z,15.70
2022-10-22T08:47:53.422Z,15.71
2022-10-22T08:48:57.921Z,15.72
2022-10-22T08:50:02.075Z,15.72
2022-10-22T08:51:06.519Z,15.73
2022-10-22T08:52:10.891Z,15.74
2022-10-22T08:53:15.217Z,15.75
2022-10-22T08:54:19.520Z,15.75
2022-10-22T08:55:23.910Z,15.75
2022-10-22T08:56:28.345Z,15.75
2022-10-22T08:57:32.669Z,15.75
2022-10-22T08:58:37.120Z,15.76
2022-10-22T08:59:41.461Z,15.77
2022-10-22T09:00:45.904Z,15.78
2022-10-22T09:01:50.216Z,15.79
2022-10-22T09:02:54.625Z,15.80
2022-10-22T09:03:58.971Z,15.81
2022-10-22T09:05:03.300Z,15.82
2022-10-22T09:06:07.734Z,15.82
2022-10-22T09:07:11.954Z,15.83
2022-10-22T09:08:16.383Z,15.84
2022-10-22T09:09:20.703Z,15.85
2022-10-22T09:10:25.124Z,15.85
2022-10-22T09:11:29.420Z,15.86
2022-10-22T09:12:33.837Z,15.87
2022-10-22T09:13:38.154Z,15.88
2022-10-22T09:14:42.486Z,15.88
2022-10-22T09:15:47.453Z,15.89
2022-10-22T09:16:51.304Z,15.90
2022-10-22T09:17:55.610Z,15.91
2022-10-22T09:18:59.958Z,15.92
2022-10-22T09:20:04.368Z,15.92
2022-10-22T09:21:08.717Z,15.92
2022-10-22T09:22:13.073Z,15.93
2022-10-22T09:23:17.402Z,15.94
2022-10-22T09:24:21.763Z,15.94
2022-10-22T09:25:26.095Z,15.95
2022-10-22T09:26:30.482Z,15.96
2022-10-22T09:27:34.834Z,15.96
2022-10-22T09:28:39.180Z,15.97
2022-10-22T09:29:43.608Z,15.97
2022-10-22T09:30:48.006Z,15.98
2022-10-22T09:31:52.390Z,15.99
2022-10-22T09:32:56.745Z,16.01
2022-10-22T09:34:01.064Z,16.03
2022-10-22T09:35:05.553Z,16.04
2022-10-22T09:36:09.906Z,16.06
2022-10-22T09:37:14.200Z,16.07
2022-10-22T09:38:18.669Z,16.08
2022-10-22T09:39:22.974Z,16.10
2022-10-22T09:40:27.322Z,16.11
2022-10-22T09:41:31.666Z,16.13
2022-10-22T09:42:36.011Z,16.15
2022-10-22T09:43:40.342Z,16.18
2022-10-22T09:44:47.676Z,16.19
2022-10-22T09:45:49.123Z,16.21
2022-10-22T09:46:53.537Z,16.23
2022-10-22T09:48:01.880Z,16.25
2022-10-22T09:49:02.224Z,16.27
2022-10-22T09:50:06.609Z,16.30
2022-10-22T09:51:10.986Z,16.31
2022-10-22T09:52:15.318Z,16.33
2022-10-22T09:53:19.691Z,16.35
2022-10-22T09:54:24.057Z,16.37
2022-10-22T09:55:28.422Z,16.38
2022-10-22T09:56:32.878Z,16.39
2022-10-22T09:57:38.799Z,16.41
2022-10-22T09:58:41.578Z,16.42
2022-10-22T09:59:45.988Z,16.43
2022-10-22T10:00:50.435Z,16.44
2022-10-22T10:01:54.749Z,16.45
2022-10-22T10:02:59.289Z,16.46
2022-10-22T10:04:08.417Z,16.48
2022-10-22T10:05:08.032Z,16.50
2022-10-22T10:06:12.313Z,16.51
2022-10-22T10:07:16.809Z,16.53
2022-10-22T10:08:21.103Z,16.54
2022-10-22T10:09:25.593Z,16.54
2022-10-22T10:10:29.926Z,16.55
2022-10-22T10:11:34.395Z,16.56
2022-10-22T10:12:38.806Z,16.57
2022-10-22T10:13:43.199Z,16.58
2022-10-22T10:14:47.508Z,16.60
2022-10-22T10:15:51.852Z,16.61
2022-10-22T10:16:56.317Z,16.62
2022-10-22T10:18:00.607Z,16.63
2022-10-22T10:19:05.007Z,16.63
2022-10-22T10:20:09.353Z,16.63
2022-10-22T10:22:18.114Z,16.64
2022-10-22T10:23:24.599Z,16.64
2022-10-22T10:24:26.851Z,16.65
2022-10-22T10:25:31.182Z,16.66
2022-10-22T10:26:35.571Z,16.68
2022-10-22T10:27:39.981Z,16.70
2022-10-22T10:28:44.345Z,16.72
2022-10-22T10:29:48.718Z,16.76
2022-10-22T10:30:53.093Z,16.80
2022-10-22T10:31:57.527Z,16.83
2022-10-22T10:33:01.956Z,16.87
2022-10-22T10:34:06.310Z,16.90
2022-10-22T10:35:10.684Z,16.93
2022-10-22T10:36:15.062Z,16.96
2022-10-22T10:37:19.524Z,16.99
2022-10-22T10:38:27.241Z,17.01
2022-10-22T10:39:28.269Z,17.04
2022-10-22T10:40:32.632Z,17.08
2022-10-22T10:41:36.997Z,17.11
2022-10-22T10:42:41.900Z,17.15
2022-10-22T10:43:45.796Z,17.19
2022-10-22T10:44:50.238Z,17.23
2022-10-22T10:45:55.754Z,17.25
2022-10-22T10:46:58.959Z,17.27
2022-10-22T10:48:03.308Z,17.29
2022-10-22T10:49:07.767Z,17.31
2022-10-22T10:50:12.233Z,17.33
2022-10-22T10:51:16.495Z,17.37
2022-10-22T10:52:21.454Z,17.41
2022-10-22T10:53:25.328Z,17.47
2022-10-22T10:54:29.868Z,17.53
2022-10-22T10:55:34.197Z,17.57
2022-10-22T10:56:39.295Z,17.61
2022-10-22T10:57:43.084Z,17.64
2022-10-22T10:58:47.288Z,17.65
2022-10-22T10:59:51.659Z,17.67
2022-10-22T11:00:56.109Z,17.68
2022-10-22T11:02:00.584Z,17.71
2022-10-22T11:03:04.746Z,17.72
2022-10-22T11:04:09.190Z,17.74
2022-10-22T11:05:13.651Z,17.76
2022-10-22T11:06:19.479Z,17.78
2022-10-22T11:07:34.123Z,17.82
2022-10-22T11:08:26.840Z,17.88
2022-10-22T11:09:31.317Z,17.93
2022-10-22T11:10:35.664Z,17.97
2022-10-22T11:11:40.183Z,18.01
2022-10-22T11:12:44.787Z,18.06
2022-10-22T11:13:49.010Z,18.10
2022-10-22T11:14:53.370Z,18.14
2022-10-22T11:15:57.771Z,18.17
2022-10-22T11:17:02.178Z,18.18
2022-10-22T11:18:06.560Z,18.18
2022-10-22T11:19:11.280Z,18.16
2022-10-22T11:20:15.351Z,18.13
2022-10-22T11:21:19.746Z,18.11
2022-10-22T11:22:26.747Z,18.10
2022-10-22T11:23:28.595Z,18.09
2022-10-22T11:24:32.910Z,18.09
2022-10-22T11:25:37.395Z,18.11
2022-10-22T11:26:41.762Z,18.12
2022-10-22T11:27:46.304Z,18.15
2022-10-22T11:28:50.646Z,18.18
2022-10-22T11:29:54.999Z,18.19
2022-10-22T11:30:59.486Z,18.20
2022-10-22T11:32:03.718Z,18.19
2022-10-22T11:33:08.157Z,18.17
2022-10-22T11:34:32.787Z,18.16
2022-10-22T11:35:16.995Z,18.16
2022-10-22T11:36:21.536Z,18.15
2022-10-22T11:37:25.903Z,18.15
2022-10-22T11:38:32.833Z,18.13
2022-10-22T11:39:34.648Z,18.12
2022-10-22T11:40:39.045Z,18.12
2022-10-22T11:41:43.538Z,18.14
2022-10-22T11:42:47.898Z,18.17
2022-10-22T11:43:55.333Z,18.22
2022-10-22T11:44:58.787Z,18.26
2022-10-22T11:46:09.152Z,18.29
2022-10-22T11:47:12.310Z,18.32
2022-10-22T11:48:16.648Z,18.35
2022-10-22T11:49:21.044Z,18.38
2022-10-22T11:50:25.472Z,18.41
2022-10-22T11:51:29.731Z,18.42
2022-10-22T11:52:34.215Z,18.45
2022-10-22T11:53:38.593Z,18.48
2022-10-22T11:54:42.965Z,18.51
2022-10-22T11:55:47.327Z,18.54
2022-10-22T11:56:51.725Z,18.58
2022-10-22T11:57:56.108Z,18.62
2022-10-22T11:59:00.501Z,18.67
2022-10-22T12:00:04.884Z,18.71
2022-10-22T12:01:09.318Z,18.77
2022-10-22T12:02:13.693Z,18.84
2022-10-22T12:03:18.190Z,18.90
2022-10-22T12:04:22.620Z,18.96
2022-10-22T12:05:27.017Z,19.02
2022-10-22T12:06:31.420Z,19.05
2022-10-22T12:07:35.831Z,19.10
2022-10-22T12:08:40.281Z,19.15
2022-10-22T12:09:44.660Z,19.19
2022-10-22T12:10:49.104Z,19.23
2022-10-22T12:11:53.484Z,19.30
2022-10-22T12:12:57.874Z,19.36
2022-10-22T12:14:02.342Z,19.44
2022-10-22T12:15:06.781Z,19.51
2022-10-22T12:16:14.196Z,19.61
2022-10-22T12:17:15.686Z,19.70
2022-10-22T12:18:20.160Z,19.77
2022-10-22T12:19:24.625Z,19.85
2022-10-22T12:20:29.029Z,19.91
2022-10-22T12:21:33.463Z,19.95
2022-10-22T12:22:38.028Z,20.01
2022-10-22T12:25:09.810Z,20.20
2022-10-22T12:26:14.131Z,20.27
2022-10-22T12:27:22.217Z,20.34
2022-10-22T12:28:22.899Z,20.41
2022-10-22T12:29:27.466Z,20.45
2022-10-22T12:30:31.905Z,20.50
2022-10-22T12:31:36.377Z,20.53
2022-10-22T12:32:40.775Z,20.56
2022-10-22T12:33:45.215Z,20.57
2022-10-22T12:35:54.049Z,20.50
2022-10-22T12:38:26.004Z,20.54
2022-10-22T12:39:30.441Z,20.61
2022-10-22T12:40:34.802Z,20.66
2022-10-22T12:41:39.278Z,20.70
2022-10-22T12:42:43.790Z,20.71
2022-10-22T12:43:48.156Z,20.71
2022-10-22T12:44:52.578Z,20.68
2022-10-22T12:45:56.930Z,20.64
2022-10-22T12:47:15.487Z,20.59
2022-10-22T12:48:18.843Z,20.52
2022-10-22T12:49:23.179Z,20.45
2022-10-22T12:50:27.600Z,20.42
2022-10-22T12:52:36.420Z,20.27
2022-10-22T12:53:40.903Z,20.22
2022-10-22T12:54:45.248Z,20.19
2022-10-22T12:55:49.683Z,20.19
2022-10-22T12:56:54.174Z,20.21
2022-10-22T12:57:58.563Z,20.25
2022-10-22T12:59:03.075Z,20.28
2022-10-22T13:00:07.474Z,20.31
2022-10-22T13:01:12.017Z,20.33
2022-10-22T13:02:16.307Z,20.31
2022-10-22T13:03:20.729Z,20.29
2022-10-22T13:04:25.243Z,20.30
2022-10-22T13:05:29.692Z,20.33
2022-10-22T13:06:34.075Z,20.36
2022-10-22T13:07:38.515Z,20.41
2022-10-22T13:08:42.922Z,20.45
2022-10-22T13:09:47.408Z,20.48
2022-10-22T13:10:51.831Z,20.53
2022-10-22T13:11:56.273Z,20.57
2022-10-22T13:13:00.663Z,20.57
2022-10-22T13:14:05.068Z,20.51
2022-10-22T13:15:09.587Z,20.45
2022-10-22T13:16:13.975Z,20.41
2022-10-22T13:17:18.468Z,20.38
2022-10-22T13:18:22.869Z,20.37
2022-10-22T13:19:27.346Z,20.38
2022-10-22T13:20:31.768Z,20.38
2022-10-22T13:21:36.192Z,20.39
2022-10-22T13:22:40.700Z,20.42
2022-10-22T13:23:45.091Z,20.46
2022-10-22T13:24:49.532Z,20.50
2022-10-22T13:25:53.894Z,20.52
2022-10-22T13:26:58.398Z,20.49
2022-10-22T13:28:02.769Z,20.41
2022-10-22T13:29:07.184Z,20.42
2022-10-22T13:30:11.588Z,20.43
2022-10-22T13:31:15.998Z,20.34
2022-10-22T13:32:20.417Z,20.13
2022-10-22T13:33:24.804Z,20.13
2022-10-22T13:34:29.215Z,20.23
2022-10-22T13:35:33.671Z,20.32
2022-10-22T13:36:38.139Z,20.33
2022-10-22T13:37:42.902Z,20.35
2022-10-22T13:38:47.037Z,20.38
2022-10-22T13:39:51.449Z,20.41
2022-10-22T13:40:55.926Z,20.40
2022-10-22T13:42:00.295Z,20.39
2022-10-22T13:43:04.780Z,20.38
2022-10-22T13:44:09.206Z,20.32
2022-10-22T13:45:13.605Z,20.29
2022-10-22T13:46:18.033Z,20.25
2022-10-22T13:47:22.441Z,20.14
2022-10-22T13:48:26.806Z,20.18
2022-10-22T13:49:31.306Z,20.04
2022-10-22T13:50:35.762Z,19.96
2022-10-22T13:51:40.211Z,19.87
2022-10-22T13:52:44.622Z,19.83
2022-10-22T13:53:49.067Z,19.77
2022-10-22T13:54:53.522Z,19.79
2022-10-22T13:55:57.874Z,19.74